sensor_id;sensor_type;location;lat;lon;timestamp;P1;durP1;ratioP1;P2;durP2;ratioP2
28481;SDS011;15703;49.588;6.260;2023-04-30T00:00:25;30.07;;;20.77;;
28481;SDS011;15703;49.588;6.260;2023-04-30T00:02:47;28.60;;;18.90;;
28481;SDS011;15703;49.588;6.260;2023-04-30T00:05:10;29.50;;;19.27;;
28481;SDS011;15703;49.588;6.260;2023-04-30T00:07:32;29.60;;;20.20;;
28481;SDS011;15703;49.588;6.260;2023-04-30T00:09:55;30.70;;;20.30;;
28481;SDS011;15703;49.588;6.260;2023-04-30T00:12:17;28.97;;;19.63;;
28481;SDS011;15703;49.588;6.260;2023-04-30T00:14:39;31.27;;;21.23;;
28481;SDS011;15703;49.588;6.260;2023-04-30T00:17:02;31.73;;;21.67;;
28481;SDS011;15703;49.588;6.260;2023-04-30T00:19:24;30.80;;;21.10;;
28481;SDS011;15703;49.588;6.260;2023-04-30T00:21:47;34.83;;;21.60;;
28481;SDS011;15703;49.588;6.260;2023-04-30T00:24:09;29.27;;;20.70;;
28481;SDS011;15703;49.588;6.260;2023-04-30T00:26:31;29.17;;;20.43;;
28481;SDS011;15703;49.588;6.260;2023-04-30T00:28:53;29.97;;;21.13;;
28481;SDS011;15703;49.588;6.260;2023-04-30T00:31:16;33.80;;;22.33;;
28481;SDS011;15703;49.588;6.260;2023-04-30T00:33:38;29.50;;;20.10;;
28481;SDS011;15703;49.588;6.260;2023-04-30T00:36:00;31.17;;;21.43;;
28481;SDS011;15703;49.588;6.260;2023-04-30T00:38:23;33.23;;;20.63;;
28481;SDS011;15703;49.588;6.260;2023-04-30T00:40:45;41.73;;;24.37;;
28481;SDS011;15703;49.588;6.260;2023-04-30T00:43:08;32.27;;;21.17;;
28481;SDS011;15703;49.588;6.260;2023-04-30T00:45:30;34.47;;;24.27;;
28481;SDS011;15703;49.588;6.260;2023-04-30T00:47:53;32.80;;;23.00;;
28481;SDS011;15703;49.588;6.260;2023-04-30T00:50:15;34.53;;;23.30;;
28481;SDS011;15703;49.588;6.260;2023-04-30T00:52:38;31.93;;;22.53;;
28481;SDS011;15703;49.588;6.260;2023-04-30T00:55:00;35.47;;;22.30;;
28481;SDS011;15703;49.588;6.260;2023-04-30T00:57:23;34.97;;;24.30;;
28481;SDS011;15703;49.588;6.260;2023-04-30T00:59:46;37.50;;;24.33;;
28481;SDS011;15703;49.588;6.260;2023-04-30T01:02:08;38.10;;;25.60;;
28481;SDS011;15703;49.588;6.260;2023-04-30T01:04:31;33.37;;;23.97;;
28481;SDS011;15703;49.588;6.260;2023-04-30T01:06:53;36.00;;;24.63;;
28481;SDS011;15703;49.588;6.260;2023-04-30T01:09:16;39.40;;;27.33;;
28481;SDS011;15703;49.588;6.260;2023-04-30T01:14:19;37.43;;;26.20;;
28481;SDS011;15703;49.588;6.260;2023-04-30T01:17:04;43.43;;;26.67;;
28481;SDS011;15703;49.588;6.260;2023-04-30T01:19:32;34.47;;;23.00;;
28481;SDS011;15703;49.588;6.260;2023-04-30T01:21:57;36.10;;;24.60;;
28481;SDS011;15703;49.588;6.260;2023-04-30T01:29:13;41.50;;;26.33;;
28481;SDS011;15703;49.588;6.260;2023-04-30T01:31:37;42.10;;;26.50;;
28481;SDS011;15703;49.588;6.260;2023-04-30T01:34:00;40.83;;;27.10;;
28481;SDS011;15703;49.588;6.260;2023-04-30T01:36:33;38.30;;;25.50;;
28481;SDS011;15703;49.588;6.260;2023-04-30T01:41:28;39.90;;;26.77;;
28481;SDS011;15703;49.588;6.260;2023-04-30T01:44:05;38.47;;;26.30;;
28481;SDS011;15703;49.588;6.260;2023-04-30T01:46:29;45.87;;;27.47;;
28481;SDS011;15703;49.588;6.260;2023-04-30T01:48:58;38.87;;;26.80;;
28481;SDS011;15703;49.588;6.260;2023-04-30T01:51:35;39.53;;;26.27;;
28481;SDS011;15703;49.588;6.260;2023-04-30T01:54:02;41.60;;;26.83;;
28481;SDS011;15703;49.588;6.260;2023-04-30T01:56:35;42.03;;;27.50;;
28481;SDS011;15703;49.588;6.260;2023-04-30T01:58:58;42.93;;;28.93;;
28481;SDS011;15703;49.588;6.260;2023-04-30T02:01:31;38.97;;;26.07;;
28481;SDS011;15703;49.588;6.260;2023-04-30T02:03:53;42.53;;;27.23;;
28481;SDS011;15703;49.588;6.260;2023-04-30T02:06:16;37.97;;;26.67;;
28481;SDS011;15703;49.588;6.260;2023-04-30T02:08:39;43.40;;;27.30;;
28481;SDS011;15703;49.588;6.260;2023-04-30T02:11:01;44.43;;;28.03;;
28481;SDS011;15703;49.588;6.260;2023-04-30T02:13:24;42.13;;;27.63;;
28481;SDS011;15703;49.588;6.260;2023-04-30T02:15:46;45.63;;;29.60;;
28481;SDS011;15703;49.588;6.260;2023-04-30T02:18:09;43.07;;;27.83;;
28481;SDS011;15703;49.588;6.260;2023-04-30T02:20:31;41.93;;;28.23;;
28481;SDS011;15703;49.588;6.260;2023-04-30T02:22:53;43.83;;;28.30;;
28481;SDS011;15703;49.588;6.260;2023-04-30T02:25:16;43.93;;;29.83;;
28481;SDS011;15703;49.588;6.260;2023-04-30T02:27:38;44.27;;;28.77;;
28481;SDS011;15703;49.588;6.260;2023-04-30T02:30:00;45.73;;;30.40;;
28481;SDS011;15703;49.588;6.260;2023-04-30T02:32:23;47.30;;;30.40;;
28481;SDS011;15703;49.588;6.260;2023-04-30T02:34:45;47.30;;;31.30;;
28481;SDS011;15703;49.588;6.260;2023-04-30T02:37:08;49.87;;;30.67;;
28481;SDS011;15703;49.588;6.260;2023-04-30T02:39:30;49.90;;;32.03;;
28481;SDS011;15703;49.588;6.260;2023-04-30T02:41:52;45.50;;;29.77;;
28481;SDS011;15703;49.588;6.260;2023-04-30T02:44:14;47.57;;;30.53;;
28481;SDS011;15703;49.588;6.260;2023-04-30T02:46:37;42.03;;;29.03;;
28481;SDS011;15703;49.588;6.260;2023-04-30T02:48:59;45.57;;;30.20;;
28481;SDS011;15703;49.588;6.260;2023-04-30T02:51:21;47.53;;;30.70;;
28481;SDS011;15703;49.588;6.260;2023-04-30T02:53:43;47.10;;;29.37;;
28481;SDS011;15703;49.588;6.260;2023-04-30T02:56:06;46.37;;;30.53;;
28481;SDS011;15703;49.588;6.260;2023-04-30T02:58:28;52.33;;;32.67;;
28481;SDS011;15703;49.588;6.260;2023-04-30T03:00:50;48.73;;;30.60;;
28481;SDS011;15703;49.588;6.260;2023-04-30T03:03:13;49.97;;;32.23;;
28481;SDS011;15703;49.588;6.260;2023-04-30T03:05:35;49.30;;;31.77;;
28481;SDS011;15703;49.588;6.260;2023-04-30T03:07:58;51.00;;;30.27;;
28481;SDS011;15703;49.588;6.260;2023-04-30T03:10:20;50.00;;;32.37;;
28481;SDS011;15703;49.588;6.260;2023-04-30T03:12:42;49.57;;;31.07;;
28481;SDS011;15703;49.588;6.260;2023-04-30T03:15:05;51.70;;;33.17;;
28481;SDS011;15703;49.588;6.260;2023-04-30T03:17:27;54.83;;;33.33;;
28481;SDS011;15703;49.588;6.260;2023-04-30T03:19:49;51.80;;;32.23;;
28481;SDS011;15703;49.588;6.260;2023-04-30T03:22:12;51.90;;;32.50;;
28481;SDS011;15703;49.588;6.260;2023-04-30T03:24:35;50.97;;;32.03;;
28481;SDS011;15703;49.588;6.260;2023-04-30T03:26:57;51.37;;;33.03;;
28481;SDS011;15703;49.588;6.260;2023-04-30T03:29:21;57.57;;;34.97;;
28481;SDS011;15703;49.588;6.260;2023-04-30T03:31:43;53.40;;;32.80;;
28481;SDS011;15703;49.588;6.260;2023-04-30T03:34:05;51.13;;;33.20;;
28481;SDS011;15703;49.588;6.260;2023-04-30T03:36:27;58.97;;;36.13;;
28481;SDS011;15703;49.588;6.260;2023-04-30T03:38:50;56.40;;;35.03;;
28481;SDS011;15703;49.588;6.260;2023-04-30T03:41:12;56.83;;;36.30;;
28481;SDS011;15703;49.588;6.260;2023-04-30T03:43:35;61.40;;;35.13;;
28481;SDS011;15703;49.588;6.260;2023-04-30T03:45:58;57.10;;;36.43;;
28481;SDS011;15703;49.588;6.260;2023-04-30T03:48:21;57.63;;;34.57;;
28481;SDS011;15703;49.588;6.260;2023-04-30T03:50:43;59.57;;;37.17;;
28481;SDS011;15703;49.588;6.260;2023-04-30T03:53:06;58.80;;;35.80;;
28481;SDS011;15703;49.588;6.260;2023-04-30T03:55:29;56.37;;;35.87;;
28481;SDS011;15703;49.588;6.260;2023-04-30T03:57:51;57.33;;;35.40;;
28481;SDS011;15703;49.588;6.260;2023-04-30T04:00:14;54.03;;;35.70;;
28481;SDS011;15703;49.588;6.260;2023-04-30T04:02:41;57.47;;;34.27;;
28481;SDS011;15703;49.588;6.260;2023-04-30T04:05:04;53.53;;;34.90;;
28481;SDS011;15703;49.588;6.260;2023-04-30T04:07:27;56.47;;;34.60;;
28481;SDS011;15703;49.588;6.260;2023-04-30T04:09:49;46.47;;;32.27;;
28481;SDS011;15703;49.588;6.260;2023-04-30T04:12:12;48.40;;;32.50;;
28481;SDS011;15703;49.588;6.260;2023-04-30T04:14:34;47.50;;;32.53;;
28481;SDS011;15703;49.588;6.260;2023-04-30T04:16:57;53.70;;;33.67;;
28481;SDS011;15703;49.588;6.260;2023-04-30T04:19:20;49.97;;;33.03;;
28481;SDS011;15703;49.588;6.260;2023-04-30T04:21:42;51.97;;;33.17;;
28481;SDS011;15703;49.588;6.260;2023-04-30T04:24:08;48.80;;;32.40;;
28481;SDS011;15703;49.588;6.260;2023-04-30T04:26:30;50.53;;;33.90;;
28481;SDS011;15703;49.588;6.260;2023-04-30T04:28:53;52.90;;;33.80;;
28481;SDS011;15703;49.588;6.260;2023-04-30T04:31:15;51.23;;;34.03;;
28481;SDS011;15703;49.588;6.260;2023-04-30T04:33:38;54.07;;;34.27;;
28481;SDS011;15703;49.588;6.260;2023-04-30T04:36:00;51.63;;;33.23;;
28481;SDS011;15703;49.588;6.260;2023-04-30T04:38:23;55.13;;;34.30;;
28481;SDS011;15703;49.588;6.260;2023-04-30T04:40:52;52.70;;;34.63;;
28481;SDS011;15703;49.588;6.260;2023-04-30T04:43:15;51.57;;;32.43;;
28481;SDS011;15703;49.588;6.260;2023-04-30T04:45:38;47.50;;;33.57;;
28481;SDS011;15703;49.588;6.260;2023-04-30T04:48:01;46.40;;;32.17;;
28481;SDS011;15703;49.588;6.260;2023-04-30T04:50:23;45.53;;;32.10;;
28481;SDS011;15703;49.588;6.260;2023-04-30T04:52:46;48.40;;;33.60;;
28481;SDS011;15703;49.588;6.260;2023-04-30T04:55:08;49.83;;;32.77;;
28481;SDS011;15703;49.588;6.260;2023-04-30T04:57:32;42.40;;;29.77;;
28481;SDS011;15703;49.588;6.260;2023-04-30T04:59:54;48.30;;;33.70;;
28481;SDS011;15703;49.588;6.260;2023-04-30T05:02:17;45.90;;;33.07;;
28481;SDS011;15703;49.588;6.260;2023-04-30T05:04:39;49.87;;;34.00;;
28481;SDS011;15703;49.588;6.260;2023-04-30T05:07:02;50.20;;;32.27;;
28481;SDS011;15703;49.588;6.260;2023-04-30T05:09:24;51.00;;;34.20;;
28481;SDS011;15703;49.588;6.260;2023-04-30T05:11:46;49.03;;;33.03;;
28481;SDS011;15703;49.588;6.260;2023-04-30T05:14:09;48.83;;;33.10;;
28481;SDS011;15703;49.588;6.260;2023-04-30T05:16:32;48.03;;;32.23;;
28481;SDS011;15703;49.588;6.260;2023-04-30T05:18:54;50.23;;;31.90;;
28481;SDS011;15703;49.588;6.260;2023-04-30T05:21:16;46.43;;;32.17;;
28481;SDS011;15703;49.588;6.260;2023-04-30T05:23:39;50.43;;;31.70;;
28481;SDS011;15703;49.588;6.260;2023-04-30T05:26:01;46.57;;;31.27;;
28481;SDS011;15703;49.588;6.260;2023-04-30T05:28:24;43.73;;;32.13;;
28481;SDS011;15703;49.588;6.260;2023-04-30T05:30:46;47.20;;;31.60;;
28481;SDS011;15703;49.588;6.260;2023-04-30T05:33:08;51.20;;;31.50;;
28481;SDS011;15703;49.588;6.260;2023-04-30T05:35:32;40.63;;;30.50;;
28481;SDS011;15703;49.588;6.260;2023-04-30T05:37:56;43.53;;;30.70;;
28481;SDS011;15703;49.588;6.260;2023-04-30T05:40:18;39.23;;;29.10;;
28481;SDS011;15703;49.588;6.260;2023-04-30T05:42:41;37.47;;;27.80;;
28481;SDS011;15703;49.588;6.260;2023-04-30T05:45:04;37.73;;;27.80;;
28481;SDS011;15703;49.588;6.260;2023-04-30T05:47:30;36.67;;;25.93;;
28481;SDS011;15703;49.588;6.260;2023-04-30T05:49:53;35.20;;;25.07;;
28481;SDS011;15703;49.588;6.260;2023-04-30T05:52:22;32.43;;;25.43;;
28481;SDS011;15703;49.588;6.260;2023-04-30T05:54:44;34.53;;;25.53;;
28481;SDS011;15703;49.588;6.260;2023-04-30T05:57:10;31.13;;;24.27;;
28481;SDS011;15703;49.588;6.260;2023-04-30T05:59:32;28.27;;;22.60;;
28481;SDS011;15703;49.588;6.260;2023-04-30T06:01:55;28.80;;;22.50;;
28481;SDS011;15703;49.588;6.260;2023-04-30T06:04:17;29.90;;;21.95;;
28481;SDS011;15703;49.588;6.260;2023-04-30T06:06:45;28.67;;;21.92;;
28481;SDS011;15703;49.588;6.260;2023-04-30T06:09:07;28.50;;;20.88;;
28481;SDS011;15703;49.588;6.260;2023-04-30T06:11:31;26.98;;;20.95;;
28481;SDS011;15703;49.588;6.260;2023-04-30T06:13:56;24.98;;;20.38;;
28481;SDS011;15703;49.588;6.260;2023-04-30T06:17:46;27.17;;;20.88;;
28481;SDS011;15703;49.588;6.260;2023-04-30T06:20:11;27.35;;;19.70;;
28481;SDS011;15703;49.588;6.260;2023-04-30T06:22:35;23.08;;;18.38;;
28481;SDS011;15703;49.588;6.260;2023-04-30T06:32:41;22.52;;;17.80;;
28481;SDS011;15703;49.588;6.260;2023-04-30T06:38:21;22.73;;;16.92;;
28481;SDS011;15703;49.588;6.260;2023-04-30T06:41:10;21.65;;;16.30;;
28481;SDS011;15703;49.588;6.260;2023-04-30T06:43:38;18.58;;;15.13;;
28481;SDS011;15703;49.588;6.260;2023-04-30T06:46:30;19.45;;;16.42;;
28481;SDS011;15703;49.588;6.260;2023-04-30T06:48:55;18.58;;;15.93;;
28481;SDS011;15703;49.588;6.260;2023-04-30T06:51:32;21.08;;;15.63;;
28481;SDS011;15703;49.588;6.260;2023-04-30T06:54:15;19.48;;;14.65;;
28481;SDS011;15703;49.588;6.260;2023-04-30T07:04:33;15.15;;;13.23;;
28481;SDS011;15703;49.588;6.260;2023-04-30T07:06:57;15.50;;;12.90;;
28481;SDS011;15703;49.588;6.260;2023-04-30T07:10:15;18.65;;;12.77;;
28481;SDS011;15703;49.588;6.260;2023-04-30T07:16:53;13.95;;;11.50;;
28481;SDS011;15703;49.588;6.260;2023-04-30T07:22:30;15.38;;;11.82;;
28481;SDS011;15703;49.588;6.260;2023-04-30T07:25:15;11.93;;;10.57;;
28481;SDS011;15703;49.588;6.260;2023-04-30T07:27:38;11.50;;;10.20;;
28481;SDS011;15703;49.588;6.260;2023-04-30T07:30:01;13.07;;;10.60;;
28481;SDS011;15703;49.588;6.260;2023-04-30T07:32:24;13.55;;;10.35;;
28481;SDS011;15703;49.588;6.260;2023-04-30T07:34:52;13.13;;;10.00;;
28481;SDS011;15703;49.588;6.260;2023-04-30T07:37:15;11.55;;;9.23;;
28481;SDS011;15703;49.588;6.260;2023-04-30T07:39:38;12.48;;;9.15;;
28481;SDS011;15703;49.588;6.260;2023-04-30T07:42:43;11.73;;;9.73;;
28481;SDS011;15703;49.588;6.260;2023-04-30T07:45:08;11.75;;;9.52;;
28481;SDS011;15703;49.588;6.260;2023-04-30T07:47:32;15.27;;;9.63;;
28481;SDS011;15703;49.588;6.260;2023-04-30T07:50:27;9.13;;;8.13;;
28481;SDS011;15703;49.588;6.260;2023-04-30T07:52:57;10.57;;;8.68;;
28481;SDS011;15703;49.588;6.260;2023-04-30T07:55:19;9.35;;;7.63;;
28481;SDS011;15703;49.588;6.260;2023-04-30T07:58:06;7.65;;;6.47;;
28481;SDS011;15703;49.588;6.260;2023-04-30T08:10:38;9.38;;;7.18;;
28481;SDS011;15703;49.588;6.260;2023-04-30T08:13:09;8.82;;;7.32;;
28481;SDS011;15703;49.588;6.260;2023-04-30T08:16:18;7.57;;;6.78;;
28481;SDS011;15703;49.588;6.260;2023-04-30T08:18:16;10.50;;;6.82;;
28481;SDS011;15703;49.588;6.260;2023-04-30T08:20:39;9.15;;;6.63;;
28481;SDS011;15703;49.588;6.260;2023-04-30T08:23:02;7.10;;;5.72;;
28481;SDS011;15703;49.588;6.260;2023-04-30T08:25:25;8.52;;;5.32;;
28481;SDS011;15703;49.588;6.260;2023-04-30T08:27:47;6.97;;;5.63;;
28481;SDS011;15703;49.588;6.260;2023-04-30T08:30:10;5.90;;;5.10;;
28481;SDS011;15703;49.588;6.260;2023-04-30T08:33:11;7.38;;;5.55;;
28481;SDS011;15703;49.588;6.260;2023-04-30T08:35:35;6.25;;;5.03;;
28481;SDS011;15703;49.588;6.260;2023-04-30T08:38:19;8.52;;;5.80;;
28481;SDS011;15703;49.588;6.260;2023-04-30T08:40:47;9.05;;;6.20;;
28481;SDS011;15703;49.588;6.260;2023-04-30T08:43:12;7.03;;;5.75;;
28481;SDS011;15703;49.588;6.260;2023-04-30T08:45:44;8.88;;;5.57;;
28481;SDS011;15703;49.588;6.260;2023-04-30T08:48:08;6.47;;;5.47;;
28481;SDS011;15703;49.588;6.260;2023-04-30T08:54:30;6.13;;;5.40;;
28481;SDS011;15703;49.588;6.260;2023-04-30T08:57:30;6.00;;;5.38;;
28481;SDS011;15703;49.588;6.260;2023-04-30T08:59:53;8.55;;;5.15;;
28481;SDS011;15703;49.588;6.260;2023-04-30T09:02:42;6.00;;;5.03;;
28481;SDS011;15703;49.588;6.260;2023-04-30T09:15:49;4.82;;;3.50;;
28481;SDS011;15703;49.588;6.260;2023-04-30T09:22:28;4.40;;;3.20;;
28481;SDS011;15703;49.588;6.260;2023-04-30T09:45:09;3.20;;;1.90;;
28481;SDS011;15703;49.588;6.260;2023-04-30T09:47:39;2.03;;;1.83;;
28481;SDS011;15703;49.588;6.260;2023-04-30T09:50:02;2.58;;;2.38;;
28481;SDS011;15703;49.588;6.260;2023-04-30T09:52:52;2.22;;;1.83;;
28481;SDS011;15703;49.588;6.260;2023-04-30T09:55:16;3.97;;;1.98;;
28481;SDS011;15703;49.588;6.260;2023-04-30T09:57:42;1.75;;;1.65;;
28481;SDS011;15703;49.588;6.260;2023-04-30T10:00:07;2.90;;;1.88;;
28481;SDS011;15703;49.588;6.260;2023-04-30T10:02:55;3.15;;;2.08;;
28481;SDS011;15703;49.588;6.260;2023-04-30T10:05:18;2.67;;;1.90;;
28481;SDS011;15703;49.588;6.260;2023-04-30T10:08:06;2.25;;;1.67;;
28481;SDS011;15703;49.588;6.260;2023-04-30T10:11:02;2.20;;;1.98;;
28481;SDS011;15703;49.588;6.260;2023-04-30T10:13:50;3.75;;;1.65;;
28481;SDS011;15703;49.588;6.260;2023-04-30T10:20:08;3.05;;;1.92;;
28481;SDS011;15703;49.588;6.260;2023-04-30T10:23:11;2.70;;;1.88;;
28481;SDS011;15703;49.588;6.260;2023-04-30T10:25:34;2.20;;;1.75;;
28481;SDS011;15703;49.588;6.260;2023-04-30T10:27:57;4.57;;;1.70;;
28481;SDS011;15703;49.588;6.260;2023-04-30T10:30:20;2.45;;;1.70;;
28481;SDS011;15703;49.588;6.260;2023-04-30T10:32:47;2.95;;;1.80;;
28481;SDS011;15703;49.588;6.260;2023-04-30T10:35:20;2.15;;;1.95;;
28481;SDS011;15703;49.588;6.260;2023-04-30T10:38:45;2.13;;;1.85;;
28481;SDS011;15703;49.588;6.260;2023-04-30T10:41:21;2.65;;;1.90;;
28481;SDS011;15703;49.588;6.260;2023-04-30T10:43:44;2.28;;;1.63;;
28481;SDS011;15703;49.588;6.260;2023-04-30T10:46:24;2.72;;;1.63;;
28481;SDS011;15703;49.588;6.260;2023-04-30T10:48:55;2.38;;;2.17;;
28481;SDS011;15703;49.588;6.260;2023-04-30T10:51:18;2.22;;;1.85;;
28481;SDS011;15703;49.588;6.260;2023-04-30T10:53:42;2.80;;;1.98;;
28481;SDS011;15703;49.588;6.260;2023-04-30T10:56:29;2.60;;;1.52;;
28481;SDS011;15703;49.588;6.260;2023-04-30T10:58:52;1.98;;;1.40;;
28481;SDS011;15703;49.588;6.260;2023-04-30T11:01:15;1.70;;;1.55;;
28481;SDS011;15703;49.588;6.260;2023-04-30T11:03:42;2.58;;;1.60;;
28481;SDS011;15703;49.588;6.260;2023-04-30T11:06:23;4.05;;;2.13;;
28481;SDS011;15703;49.588;6.260;2023-04-30T11:08:47;2.20;;;1.92;;
28481;SDS011;15703;49.588;6.260;2023-04-30T11:11:09;1.90;;;1.80;;
28481;SDS011;15703;49.588;6.260;2023-04-30T11:13:43;2.78;;;1.98;;
28481;SDS011;15703;49.588;6.260;2023-04-30T11:16:08;1.70;;;1.60;;
28481;SDS011;15703;49.588;6.260;2023-04-30T11:18:31;3.75;;;1.80;;
28481;SDS011;15703;49.588;6.260;2023-04-30T11:20:54;3.03;;;2.05;;
28481;SDS011;15703;49.588;6.260;2023-04-30T11:23:22;3.35;;;1.55;;
28481;SDS011;15703;49.588;6.260;2023-04-30T11:26:02;3.25;;;1.52;;
28481;SDS011;15703;49.588;6.260;2023-04-30T11:28:25;3.90;;;1.80;;
28481;SDS011;15703;49.588;6.260;2023-04-30T11:30:58;2.08;;;1.45;;
28481;SDS011;15703;49.588;6.260;2023-04-30T11:33:21;1.60;;;1.45;;
28481;SDS011;15703;49.588;6.260;2023-04-30T11:35:44;2.70;;;1.92;;
28481;SDS011;15703;49.588;6.260;2023-04-30T11:41:29;2.63;;;1.90;;
28481;SDS011;15703;49.588;6.260;2023-04-30T11:43:52;2.15;;;1.67;;
28481;SDS011;15703;49.588;6.260;2023-04-30T11:46:14;1.50;;;1.40;;
28481;SDS011;15703;49.588;6.260;2023-04-30T11:48:41;2.10;;;1.73;;
28481;SDS011;15703;49.588;6.260;2023-04-30T11:51:12;1.83;;;1.65;;
28481;SDS011;15703;49.588;6.260;2023-04-30T11:53:38;3.33;;;2.10;;
28481;SDS011;15703;49.588;6.260;2023-04-30T11:56:01;4.70;;;4.00;;
28481;SDS011;15703;49.588;6.260;2023-04-30T11:58:24;4.15;;;2.40;;
28481;SDS011;15703;49.588;6.260;2023-04-30T12:00:54;2.60;;;2.13;;
28481;SDS011;15703;49.588;6.260;2023-04-30T12:04:00;2.95;;;1.70;;
28481;SDS011;15703;49.588;6.260;2023-04-30T12:06:25;1.55;;;1.23;;
28481;SDS011;15703;49.588;6.260;2023-04-30T12:08:48;3.65;;;2.20;;
28481;SDS011;15703;49.588;6.260;2023-04-30T12:11:22;2.58;;;1.40;;
28481;SDS011;15703;49.588;6.260;2023-04-30T12:14:01;3.20;;;1.70;;
28481;SDS011;15703;49.588;6.260;2023-04-30T12:16:48;2.22;;;2.03;;
28481;SDS011;15703;49.588;6.260;2023-04-30T12:20:02;2.13;;;1.80;;
28481;SDS011;15703;49.588;6.260;2023-04-30T12:22:25;1.90;;;1.48;;
28481;SDS011;15703;49.588;6.260;2023-04-30T12:24:54;4.47;;;1.90;;
28481;SDS011;15703;49.588;6.260;2023-04-30T12:27:16;2.50;;;1.60;;
28481;SDS011;15703;49.588;6.260;2023-04-30T12:29:39;2.50;;;2.08;;
28481;SDS011;15703;49.588;6.260;2023-04-30T12:32:11;1.92;;;1.60;;
28481;SDS011;15703;49.588;6.260;2023-04-30T12:34:36;2.38;;;1.63;;
28481;SDS011;15703;49.588;6.260;2023-04-30T12:36:59;1.98;;;1.75;;
28481;SDS011;15703;49.588;6.260;2023-04-30T12:39:23;2.38;;;1.70;;
28481;SDS011;15703;49.588;6.260;2023-04-30T12:41:46;1.98;;;1.40;;
28481;SDS011;15703;49.588;6.260;2023-04-30T12:44:13;1.98;;;1.60;;
28481;SDS011;15703;49.588;6.260;2023-04-30T12:46:38;3.38;;;1.80;;
28481;SDS011;15703;49.588;6.260;2023-04-30T12:49:01;2.53;;;1.50;;
28481;SDS011;15703;49.588;6.260;2023-04-30T12:51:23;4.65;;;1.73;;
28481;SDS011;15703;49.588;6.260;2023-04-30T12:53:46;2.72;;;1.50;;
28481;SDS011;15703;49.588;6.260;2023-04-30T12:56:12;1.92;;;1.48;;
28481;SDS011;15703;49.588;6.260;2023-04-30T12:58:37;3.22;;;1.73;;
28481;SDS011;15703;49.588;6.260;2023-04-30T13:00:59;1.40;;;1.23;;
28481;SDS011;15703;49.588;6.260;2023-04-30T13:03:22;1.42;;;1.20;;
28481;SDS011;15703;49.588;6.260;2023-04-30T13:05:51;1.77;;;1.38;;
28481;SDS011;15703;49.588;6.260;2023-04-30T13:08:14;1.73;;;1.50;;
28481;SDS011;15703;49.588;6.260;2023-04-30T13:10:46;3.08;;;1.48;;
28481;SDS011;15703;49.588;6.260;2023-04-30T13:13:10;1.40;;;1.30;;
28481;SDS011;15703;49.588;6.260;2023-04-30T13:15:37;2.83;;;1.30;;
28481;SDS011;15703;49.588;6.260;2023-04-30T13:18:01;1.98;;;1.20;;
28481;SDS011;15703;49.588;6.260;2023-04-30T13:20:24;2.00;;;1.48;;
28481;SDS011;15703;49.588;6.260;2023-04-30T13:22:47;1.58;;;1.30;;
28481;SDS011;15703;49.588;6.260;2023-04-30T13:25:10;1.92;;;1.08;;
28481;SDS011;15703;49.588;6.260;2023-04-30T13:27:33;1.75;;;1.65;;
28481;SDS011;15703;49.588;6.260;2023-04-30T13:30:01;2.75;;;1.20;;
28481;SDS011;15703;49.588;6.260;2023-04-30T13:32:24;2.92;;;1.55;;
28481;SDS011;15703;49.588;6.260;2023-04-30T13:34:47;2.00;;;1.40;;
28481;SDS011;15703;49.588;6.260;2023-04-30T13:37:09;2.28;;;1.20;;
28481;SDS011;15703;49.588;6.260;2023-04-30T13:39:35;3.15;;;1.10;;
28481;SDS011;15703;49.588;6.260;2023-04-30T13:41:57;2.08;;;1.20;;
28481;SDS011;15703;49.588;6.260;2023-04-30T13:44:21;3.50;;;1.52;;
28481;SDS011;15703;49.588;6.260;2023-04-30T13:46:47;1.60;;;1.30;;
28481;SDS011;15703;49.588;6.260;2023-04-30T13:49:20;1.60;;;1.40;;
28481;SDS011;15703;49.588;6.260;2023-04-30T13:51:42;1.60;;;1.50;;
28481;SDS011;15703;49.588;6.260;2023-04-30T13:54:05;2.30;;;1.30;;
28481;SDS011;15703;49.588;6.260;2023-04-30T13:56:27;1.17;;;1.08;;
28481;SDS011;15703;49.588;6.260;2023-04-30T13:58:49;1.75;;;1.52;;
28481;SDS011;15703;49.588;6.260;2023-04-30T14:01:12;1.40;;;1.23;;
28481;SDS011;15703;49.588;6.260;2023-04-30T14:03:37;2.55;;;1.40;;
28481;SDS011;15703;49.588;6.260;2023-04-30T14:05:59;1.65;;;1.33;;
28481;SDS011;15703;49.588;6.260;2023-04-30T14:08:31;2.22;;;1.35;;
28481;SDS011;15703;49.588;6.260;2023-04-30T14:10:54;2.03;;;1.13;;
28481;SDS011;15703;49.588;6.260;2023-04-30T14:13:17;2.00;;;1.50;;
28481;SDS011;15703;49.588;6.260;2023-04-30T14:15:39;2.15;;;1.30;;
28481;SDS011;15703;49.588;6.260;2023-04-30T14:18:07;3.28;;;1.20;;
28481;SDS011;15703;49.588;6.260;2023-04-30T14:20:30;2.83;;;1.48;;
28481;SDS011;15703;49.588;6.260;2023-04-30T14:22:52;1.67;;;1.17;;
28481;SDS011;15703;49.588;6.260;2023-04-30T14:25:15;3.75;;;1.50;;
28481;SDS011;15703;49.588;6.260;2023-04-30T14:27:41;1.65;;;1.17;;
28481;SDS011;15703;49.588;6.260;2023-04-30T14:30:04;2.67;;;1.30;;
28481;SDS011;15703;49.588;6.260;2023-04-30T14:32:49;1.33;;;1.20;;
28481;SDS011;15703;49.588;6.260;2023-04-30T14:35:12;1.27;;;1.13;;
28481;SDS011;15703;49.588;6.260;2023-04-30T14:37:34;1.65;;;1.30;;
28481;SDS011;15703;49.588;6.260;2023-04-30T14:39:56;1.55;;;1.08;;
28481;SDS011;15703;49.588;6.260;2023-04-30T14:42:20;2.90;;;1.10;;
28481;SDS011;15703;49.588;6.260;2023-04-30T14:44:43;2.20;;;1.10;;
28481;SDS011;15703;49.588;6.260;2023-04-30T14:47:06;4.40;;;1.40;;
28481;SDS011;15703;49.588;6.260;2023-04-30T14:49:28;2.78;;;1.48;;
28481;SDS011;15703;49.588;6.260;2023-04-30T14:51:51;1.27;;;1.17;;
28481;SDS011;15703;49.588;6.260;2023-04-30T14:54:13;1.98;;;1.35;;
28481;SDS011;15703;49.588;6.260;2023-04-30T14:56:36;2.58;;;1.15;;
28481;SDS011;15703;49.588;6.260;2023-04-30T14:58:59;3.25;;;1.23;;
28481;SDS011;15703;49.588;6.260;2023-04-30T15:01:21;2.35;;;1.27;;
28481;SDS011;15703;49.588;6.260;2023-04-30T15:03:46;3.38;;;1.33;;
28481;SDS011;15703;49.588;6.260;2023-04-30T15:06:08;3.67;;;1.30;;
28481;SDS011;15703;49.588;6.260;2023-04-30T15:08:31;3.00;;;1.40;;
28481;SDS011;15703;49.588;6.260;2023-04-30T15:10:54;1.17;;;1.00;;
28481;SDS011;15703;49.588;6.260;2023-04-30T15:13:17;1.30;;;1.20;;
28481;SDS011;15703;49.588;6.260;2023-04-30T15:15:40;2.03;;;1.30;;
28481;SDS011;15703;49.588;6.260;2023-04-30T15:18:03;2.75;;;1.30;;
28481;SDS011;15703;49.588;6.260;2023-04-30T15:20:26;2.47;;;1.30;;
28481;SDS011;15703;49.588;6.260;2023-04-30T15:22:49;2.80;;;1.45;;
28481;SDS011;15703;49.588;6.260;2023-04-30T15:25:15;2.55;;;1.27;;
28481;SDS011;15703;49.588;6.260;2023-04-30T15:27:45;2.33;;;1.35;;
28481;SDS011;15703;49.588;6.260;2023-04-30T15:30:07;1.98;;;1.20;;
28481;SDS011;15703;49.588;6.260;2023-04-30T15:32:49;1.35;;;1.00;;
28481;SDS011;15703;49.588;6.260;2023-04-30T15:35:22;2.80;;;1.40;;
28481;SDS011;15703;49.588;6.260;2023-04-30T15:37:44;1.40;;;1.10;;
28481;SDS011;15703;49.588;6.260;2023-04-30T15:40:07;2.17;;;1.13;;
28481;SDS011;15703;49.588;6.260;2023-04-30T15:42:35;0.95;;;0.90;;
28481;SDS011;15703;49.588;6.260;2023-04-30T15:44:58;1.33;;;1.23;;
28481;SDS011;15703;49.588;6.260;2023-04-30T15:47:41;2.25;;;1.00;;
28481;SDS011;15703;49.588;6.260;2023-04-30T15:50:16;1.70;;;1.13;;
28481;SDS011;15703;49.588;6.260;2023-04-30T15:53:11;1.67;;;1.05;;
28481;SDS011;15703;49.588;6.260;2023-04-30T15:55:46;1.63;;;1.20;;
28481;SDS011;15703;49.588;6.260;2023-04-30T15:58:10;1.90;;;1.20;;
28481;SDS011;15703;49.588;6.260;2023-04-30T16:00:33;1.27;;;1.17;;
28481;SDS011;15703;49.588;6.260;2023-04-30T16:02:58;1.45;;;1.30;;
28481;SDS011;15703;49.588;6.260;2023-04-30T16:05:23;1.67;;;1.38;;